createdAt,value
2023-01-18T00:01:59.917Z,100.00
2023-01-18T00:05:08.963Z,100.00
2023-01-18T00:08:19.036Z,100.00
2023-01-18T00:11:25.580Z,100.00
2023-01-18T00:14:32.185Z,100.00
2023-01-18T00:17:47.808Z,100.00
2023-01-18T00:20:55.627Z,100.00
2023-01-18T00:24:02.160Z,100.00
2023-01-18T00:27:10.489Z,100.00
2023-01-18T00:30:18.715Z,100.00
2023-01-18T00:33:25.043Z,100.00
2023-01-18T00:36:33.246Z,100.00
2023-01-18T00:39:41.001Z,100.00
2023-01-18T00:43:04.985Z,100.00
2023-01-18T00:46:13.489Z,100.00
2023-01-18T00:49:19.868Z,100.00
2023-01-18T00:52:27.632Z,100.00
2023-01-18T00:55:33.759Z,100.00
2023-01-18T00:58:39.991Z,100.00
2023-01-18T01:01:46.173Z,100.00
2023-01-18T01:05:09.984Z,100.00
2023-01-18T01:08:18.124Z,100.00
2023-01-18T01:11:24.513Z,100.00
2023-01-18T01:14:48.348Z,100.00
2023-01-18T01:18:12.578Z,100.00
2023-01-18T01:21:36.068Z,100.00
2023-01-18T01:25:00.997Z,100.00
2023-01-18T01:28:07.748Z,100.00
2023-01-18T01:31:16.167Z,100.00
2023-01-18T01:34:22.960Z,100.00
2023-01-18T01:37:29.503Z,100.00
2023-01-18T01:40:37.017Z,100.00
2023-01-18T01:43:46.860Z,100.00
2023-01-18T01:46:57.354Z,100.00
2023-01-18T01:50:10.871Z,100.00
2023-01-18T01:53:17.201Z,100.00
2023-01-18T01:56:25.008Z,100.00
2023-01-18T01:59:31.335Z,100.00
2023-01-18T02:02:38.684Z,100.00
2023-01-18T02:05:49.338Z,100.00
2023-01-18T02:08:55.284Z,100.00
2023-01-18T02:12:03.265Z,100.00
2023-01-18T02:15:10.997Z,100.00
2023-01-18T02:18:26.111Z,100.00
2023-01-18T02:21:39.294Z,100.00
2023-01-18T02:25:09.198Z,100.00
2023-01-18T02:28:18.579Z,100.00
2023-01-18T02:31:30.098Z,100.00
2023-01-18T02:34:44.444Z,100.00
2023-01-18T02:38:02.380Z,100.00
2023-01-18T02:41:14.368Z,100.00
2023-01-18T02:44:48.996Z,100.00
2023-01-18T02:47:56.776Z,100.00
2023-01-18T02:51:02.916Z,100.00
2023-01-18T02:54:10.981Z,100.00
2023-01-18T02:57:18.674Z,100.00
2023-01-18T03:00:27.770Z,100.00
2023-01-18T03:03:35.953Z,100.00
2023-01-18T03:06:48.366Z,100.00
2023-01-18T03:09:56.079Z,100.00
2023-01-18T03:13:10.082Z,100.00
2023-01-18T03:16:24.134Z,100.00
2023-01-18T03:19:59.444Z,100.00
2023-01-18T03:23:30.101Z,100.00
2023-01-18T03:26:41.023Z,100.00
2023-01-18T03:30:05.547Z,100.00
2023-01-18T03:33:31.871Z,100.00
2023-01-18T03:36:42.098Z,100.00
2023-01-18T03:39:52.677Z,100.00
2023-01-18T03:43:07.413Z,100.00
2023-01-18T03:46:16.467Z,100.00
2023-01-18T03:49:24.675Z,100.00
2023-01-18T03:52:38.121Z,100.00
2023-01-18T03:55:49.014Z,100.00
2023-01-18T03:58:59.688Z,100.00
2023-01-18T04:02:07.974Z,100.00
2023-01-18T04:05:16.850Z,100.00
2023-01-18T04:08:23.422Z,100.00
2023-01-18T04:11:30.124Z,100.00
2023-01-18T04:14:36.282Z,100.00
2023-01-18T04:17:42.619Z,100.00
2023-01-18T04:20:50.452Z,100.00
2023-01-18T04:23:56.789Z,100.00
2023-01-18T04:27:03.000Z,100.00
2023-01-18T04:30:10.751Z,100.00
2023-01-18T04:33:18.057Z,100.00
2023-01-18T04:36:26.084Z,100.00
2023-01-18T04:39:32.394Z,100.00
2023-01-18T04:42:38.588Z,100.00
2023-01-18T04:45:46.427Z,100.00
2023-01-18T04:48:53.589Z,100.00
2023-01-18T04:52:01.195Z,100.00
2023-01-18T04:55:08.776Z,100.00
2023-01-18T04:58:15.203Z,100.00
2023-01-18T05:01:22.666Z,100.00
2023-01-18T05:04:29.057Z,100.00
2023-01-18T05:07:39.333Z,100.00
2023-01-18T05:10:45.521Z,100.00
2023-01-18T05:13:52.047Z,100.00
2023-01-18T05:16:58.370Z,100.00
2023-01-18T05:20:06.450Z,100.00
2023-01-18T05:23:14.455Z,100.00
2023-01-18T05:26:23.659Z,100.00
2023-01-18T05:29:30.056Z,100.00
2023-01-18T05:32:37.070Z,100.00
2023-01-18T05:35:43.219Z,100.00
2023-01-18T05:38:50.716Z,100.00
2023-01-18T05:41:59.970Z,100.00
2023-01-18T05:45:07.312Z,100.00
2023-01-18T05:48:13.651Z,100.00
2023-01-18T05:51:19.894Z,100.00
2023-01-18T05:54:27.686Z,100.00
2023-01-18T05:57:34.194Z,100.00
2023-01-18T06:00:40.733Z,100.00
2023-01-18T06:03:46.766Z,100.00
2023-01-18T06:06:52.822Z,100.00
2023-01-18T06:10:00.798Z,100.00
2023-01-18T06:13:07.166Z,100.00
2023-01-18T06:16:13.738Z,100.00
2023-01-18T06:19:20.300Z,100.00
2023-01-18T06:22:26.649Z,100.00
2023-01-18T06:25:34.230Z,100.00
2023-01-18T06:28:40.607Z,100.00
2023-01-18T06:31:47.017Z,100.00
2023-01-18T06:34:53.067Z,100.00
2023-01-18T06:37:59.557Z,100.00
2023-01-18T06:41:07.617Z,100.00
2023-01-18T06:44:13.647Z,100.00
2023-01-18T06:47:20.912Z,100.00
2023-01-18T06:50:27.376Z,100.00
2023-01-18T06:53:35.512Z,100.00
2023-01-18T06:56:44.653Z,100.00
2023-01-18T06:59:53.439Z,100.00
2023-01-18T07:03:00.407Z,100.00
2023-01-18T07:06:07.719Z,100.00
2023-01-18T07:09:14.752Z,100.00
2023-01-18T07:12:23.440Z,100.00
2023-01-18T07:15:29.773Z,100.00
2023-01-18T07:18:36.275Z,100.00
2023-01-18T07:21:42.678Z,100.00
2023-01-18T07:24:48.906Z,100.00
2023-01-18T07:27:58.486Z,100.00
2023-01-18T07:31:06.453Z,100.00
2023-01-18T07:34:13.534Z,100.00
2023-01-18T07:37:19.840Z,100.00
2023-01-18T07:40:26.044Z,100.00
2023-01-18T07:43:34.536Z,100.00
2023-01-18T07:46:42.759Z,100.00
2023-01-18T07:49:48.863Z,100.00
2023-01-18T07:52:56.987Z,100.00
2023-01-18T07:56:04.603Z,100.00
2023-01-18T07:59:12.292Z,100.00
2023-01-18T08:02:18.881Z,100.00
2023-01-18T08:05:27.843Z,100.00
2023-01-18T08:08:34.456Z,100.00
2023-01-18T08:11:40.803Z,100.00
2023-01-18T08:14:48.374Z,100.00
2023-01-18T08:17:55.567Z,100.00
2023-01-18T08:21:02.191Z,100.00
2023-01-18T08:24:08.801Z,100.00
2023-01-18T08:27:16.822Z,100.00
2023-01-18T08:30:28.092Z,100.00
2023-01-18T08:33:38.213Z,100.00
2023-01-18T08:36:44.626Z,100.00
2023-01-18T08:39:50.831Z,100.00
2023-01-18T08:42:58.324Z,100.00
2023-01-18T08:46:06.223Z,100.00
2023-01-18T08:49:12.577Z,100.00
2023-01-18T08:52:18.879Z,100.00
2023-01-18T08:55:25.187Z,100.00
2023-01-18T08:58:33.277Z,100.00
2023-01-18T09:01:41.065Z,100.00
2023-01-18T09:04:48.765Z,100.00
2023-01-18T09:07:55.875Z,100.00
2023-01-18T09:11:03.859Z,100.00
2023-01-18T09:14:09.970Z,100.00
2023-01-18T09:17:19.363Z,100.00
2023-01-18T09:20:26.123Z,100.00
2023-01-18T09:23:32.700Z,100.00
2023-01-18T09:26:38.888Z,100.00
2023-01-18T09:29:47.197Z,100.00
2023-01-18T09:32:54.839Z,100.00
2023-01-18T09:40:55.440Z,95.98
2023-01-18T09:44:07.035Z,94.59
2023-01-18T09:47:18.174Z,97.79
2023-01-18T09:50:26.251Z,96.61
2023-01-18T09:53:54.416Z,97.56
2023-01-18T09:57:07.052Z,95.06
2023-01-18T10:00:21.752Z,91.31
2023-01-18T10:03:35.334Z,91.90
2023-01-18T10:06:49.195Z,90.73
2023-01-18T10:09:57.593Z,89.39
2023-01-18T10:13:25.075Z,88.85
2023-01-18T10:16:33.058Z,91.41
2023-01-18T10:19:40.372Z,87.68
2023-01-18T10:22:52.941Z,86.56
2023-01-18T10:26:04.112Z,85.67
2023-01-18T10:29:26.624Z,88.64
2023-01-18T10:32:36.470Z,84.42
2023-01-18T10:35:48.315Z,83.59
2023-01-18T10:39:01.636Z,83.96
2023-01-18T10:42:21.811Z,86.64
2023-01-18T10:45:30.542Z,83.75
2023-01-18T10:48:38.906Z,87.26
2023-01-18T10:51:46.432Z,90.73
2023-01-18T10:54:58.140Z,91.31
2023-01-18T10:58:04.098Z,89.06
2023-01-18T11:01:16.694Z,89.30
2023-01-18T11:04:26.062Z,88.44
2023-01-18T11:07:32.396Z,89.70
2023-01-18T11:10:41.639Z,87.42
2023-01-18T11:13:50.845Z,88.88
2023-01-18T11:17:02.337Z,91.09
2023-01-18T11:20:16.974Z,92.47
2023-01-18T11:23:26.696Z,90.52
2023-01-18T11:26:34.571Z,91.74
2023-01-18T11:29:45.267Z,88.00
2023-01-18T11:32:53.015Z,84.85
2023-01-18T11:36:01.216Z,84.34
2023-01-18T11:39:26.961Z,85.23
2023-01-18T11:42:37.942Z,86.78
2023-01-18T11:45:53.629Z,88.79
2023-01-18T11:49:08.638Z,84.00
2023-01-18T11:52:25.064Z,86.94
2023-01-18T11:55:36.790Z,88.87
2023-01-18T11:58:45.381Z,88.13
2023-01-18T12:02:22.312Z,86.77
2023-01-18T12:05:39.459Z,85.56
2023-01-18T12:08:57.659Z,88.95
2023-01-18T12:12:19.944Z,90.52
2023-01-18T12:15:45.915Z,90.24
2023-01-18T12:19:18.676Z,90.64
2023-01-18T12:22:46.443Z,92.24
2023-01-18T12:26:13.109Z,92.49
2023-01-18T12:29:40.947Z,92.45
2023-01-18T12:33:02.408Z,93.00
2023-01-18T12:36:30.251Z,94.67
2023-01-18T12:39:56.967Z,94.75
2023-01-18T12:43:18.342Z,96.22
2023-01-18T12:46:29.015Z,95.74
2023-01-18T12:49:41.539Z,99.00
2023-01-18T12:52:52.436Z,100.00
2023-01-18T12:56:07.450Z,100.00
2023-01-18T12:59:19.076Z,100.00
2023-01-18T13:02:33.355Z,100.00
2023-01-18T13:05:52.572Z,100.00
2023-01-18T13:09:03.910Z,100.00
2023-01-18T13:12:10.849Z,98.76
2023-01-18T13:15:42.353Z,99.54
2023-01-18T13:18:55.947Z,96.87
2023-01-18T13:22:15.072Z,96.58
2023-01-18T13:25:33.674Z,94.77
2023-01-18T13:28:40.101Z,92.25
2023-01-18T13:31:48.113Z,90.54
2023-01-18T13:35:19.504Z,88.24
2023-01-18T13:38:40.943Z,86.71
2023-01-18T13:42:09.274Z,87.10
2023-01-18T13:45:19.387Z,86.85
2023-01-18T13:48:47.766Z,89.11
2023-01-18T13:51:54.724Z,84.62
2023-01-18T13:55:18.153Z,86.19
2023-01-18T13:58:28.080Z,88.26
2023-01-18T14:01:37.273Z,86.76
2023-01-18T14:04:43.757Z,85.07
2023-01-18T14:07:53.199Z,87.97
2023-01-18T14:11:05.632Z,89.87
2023-01-18T14:14:28.375Z,84.25
2023-01-18T14:17:41.705Z,87.99
2023-01-18T14:21:16.562Z,87.43
2023-01-18T14:24:55.609Z,87.10
2023-01-18T14:28:10.325Z,89.17
2023-01-18T14:31:21.092Z,88.50
2023-01-18T14:34:38.098Z,89.03
2023-01-18T14:37:44.516Z,87.61
2023-01-18T14:40:53.722Z,90.81
2023-01-18T14:44:01.778Z,94.04
2023-01-18T14:47:23.493Z,95.58
2023-01-18T14:50:34.567Z,95.53
2023-01-18T14:53:47.468Z,94.38
2023-01-18T14:57:02.173Z,93.26
2023-01-18T15:00:18.573Z,91.56
2023-01-18T15:03:27.635Z,91.77
2023-01-18T15:06:40.072Z,91.71
2023-01-18T15:09:47.861Z,92.24
2023-01-18T15:12:57.812Z,91.18
2023-01-18T15:16:07.740Z,91.54
2023-01-18T15:19:18.405Z,92.34
2023-01-18T15:22:30.671Z,91.85
2023-01-18T15:25:37.230Z,90.94
2023-01-18T15:28:43.437Z,91.71
2023-01-18T15:31:53.527Z,91.63
2023-01-18T15:35:01.283Z,92.10
2023-01-18T15:38:07.598Z,91.11
2023-01-18T15:41:16.113Z,91.41
2023-01-18T15:44:49.251Z,92.99
2023-01-18T15:47:58.798Z,91.53
2023-01-18T15:51:11.162Z,92.75
2023-01-18T15:54:20.852Z,92.10
2023-01-18T15:57:27.729Z,92.42
2023-01-18T16:00:41.228Z,93.00
2023-01-18T16:03:59.910Z,91.48
2023-01-18T16:07:36.475Z,92.91
2023-01-18T16:10:50.124Z,92.63
2023-01-18T16:13:59.183Z,91.62
2023-01-18T16:17:07.701Z,91.60
2023-01-18T16:20:18.030Z,91.73
2023-01-18T16:23:25.611Z,91.61
2023-01-18T16:26:32.764Z,91.81
2023-01-18T16:29:45.094Z,91.12
2023-01-18T16:32:51.393Z,91.89
2023-01-18T16:35:59.211Z,92.96
2023-01-18T16:39:05.545Z,93.99
2023-01-18T16:42:13.255Z,92.51
2023-01-18T16:45:19.603Z,92.22
2023-01-18T16:48:28.233Z,91.81
2023-01-18T16:51:36.281Z,93.58
2023-01-18T16:54:43.919Z,92.81
2023-01-18T16:57:51.712Z,93.43
2023-01-18T17:01:03.273Z,92.99
2023-01-18T17:04:11.678Z,91.92
2023-01-18T17:07:19.196Z,93.31
2023-01-18T17:10:31.906Z,92.49
2023-01-18T17:13:38.208Z,92.92
2023-01-18T17:16:45.221Z,94.67
2023-01-18T17:19:52.098Z,93.54
2023-01-18T17:23:03.611Z,93.79
2023-01-18T17:26:14.212Z,92.18
2023-01-18T17:29:22.149Z,93.21
2023-01-18T17:35:39.796Z,93.15
2023-01-18T17:38:47.355Z,93.56
2023-01-18T17:41:53.394Z,95.85
2023-01-18T17:45:03.946Z,95.21
2023-01-18T17:48:10.311Z,95.62
2023-01-18T17:51:16.631Z,94.98
2023-01-18T17:54:24.460Z,95.20
2023-01-18T17:57:30.774Z,95.76
2023-01-18T18:00:37.281Z,95.40
2023-01-18T18:03:48.047Z,98.06
2023-01-18T18:06:58.539Z,98.88
2023-01-18T18:10:06.423Z,98.68
2023-01-18T18:13:12.717Z,100.00
2023-01-18T18:16:19.433Z,100.00
2023-01-18T18:19:25.985Z,100.00
2023-01-18T18:22:32.544Z,100.00
2023-01-18T18:25:40.321Z,100.00
2023-01-18T18:28:46.441Z,99.68
2023-01-18T18:31:53.032Z,98.83
2023-01-18T18:34:59.442Z,100.00
2023-01-18T18:38:05.767Z,100.00
2023-01-18T18:41:13.759Z,99.49
2023-01-18T18:44:20.445Z,99.30
2023-01-18T18:47:27.161Z,97.96
2023-01-18T18:50:33.587Z,98.77
2023-01-18T18:53:40.224Z,98.06
2023-01-18T18:56:48.772Z,99.43
2023-01-18T18:59:55.542Z,97.70
2023-01-18T19:03:02.917Z,100.00
2023-01-18T19:06:09.870Z,97.41
2023-01-18T19:09:16.295Z,97.80
2023-01-18T19:12:23.841Z,97.37
2023-01-18T19:15:30.033Z,97.74
2023-01-18T19:18:37.198Z,97.99
2023-01-18T19:21:43.516Z,98.21
2023-01-18T19:24:49.849Z,97.75
2023-01-18T19:27:57.379Z,99.50
2023-01-18T19:31:05.657Z,100.00
2023-01-18T19:34:12.298Z,100.00
2023-01-18T19:37:18.767Z,100.00
2023-01-18T19:40:24.998Z,100.00
2023-01-18T19:43:34.442Z,100.00
2023-01-18T19:46:40.558Z,100.00
2023-01-18T19:49:46.705Z,100.00
2023-01-18T19:52:52.982Z,100.00
2023-01-18T19:56:06.919Z,100.00
2023-01-18T19:59:15.745Z,100.00
2023-01-18T20:02:22.685Z,100.00
2023-01-18T20:05:29.267Z,100.00
2023-01-18T20:08:35.791Z,100.00
2023-01-18T20:11:41.959Z,100.00
2023-01-18T20:14:50.215Z,100.00
2023-01-18T20:17:56.264Z,100.00
2023-01-18T20:21:06.699Z,100.00
2023-01-18T20:24:13.159Z,100.00
2023-01-18T20:27:19.905Z,100.00
2023-01-18T20:30:27.690Z,100.00
2023-01-18T20:33:35.411Z,100.00
2023-01-18T20:36:41.361Z,100.00
2023-01-18T20:39:47.538Z,100.00
2023-01-18T20:42:54.204Z,100.00
2023-01-18T20:46:02.922Z,100.00
2023-01-18T20:49:09.285Z,100.00
2023-01-18T20:52:15.629Z,100.00
2023-01-18T20:55:22.230Z,100.00
2023-01-18T20:58:29.448Z,100.00
2023-01-18T21:01:37.209Z,100.00
2023-01-18T21:04:43.729Z,100.00
2023-01-18T21:07:49.827Z,100.00
2023-01-18T21:10:56.380Z,100.00
2023-01-18T21:14:04.152Z,100.00
2023-01-18T21:17:12.034Z,100.00
2023-01-18T21:20:18.690Z,100.00
2023-01-18T21:23:27.189Z,100.00
2023-01-18T21:26:33.959Z,100.00
2023-01-18T21:29:40.583Z,100.00
2023-01-18T21:32:48.997Z,100.00
2023-01-18T21:35:56.217Z,100.00
2023-01-18T21:39:03.032Z,97.36
2023-01-18T21:42:28.674Z,91.36
2023-01-18T21:45:53.010Z,97.91
2023-01-18T21:49:04.462Z,100.00
2023-01-18T21:52:28.431Z,100.00
2023-01-18T21:55:35.556Z,100.00
2023-01-18T21:58:54.173Z,100.00
2023-01-18T22:02:00.808Z,100.00
2023-01-18T22:05:09.989Z,100.00
2023-01-18T22:08:16.484Z,100.00
2023-01-18T22:11:22.681Z,100.00
2023-01-18T22:14:29.066Z,100.00
2023-01-18T22:17:35.308Z,100.00
2023-01-18T22:20:42.795Z,98.97
2023-01-18T22:23:49.432Z,98.91
2023-01-18T22:26:55.567Z,98.30
2023-01-18T22:30:02.197Z,97.22
2023-01-18T22:33:08.497Z,96.24
2023-01-18T22:36:16.930Z,95.85
2023-01-18T22:39:23.306Z,94.60
2023-01-18T22:42:30.229Z,96.55
2023-01-18T22:45:36.595Z,96.83
2023-01-18T22:48:43.244Z,96.13
2023-01-18T22:51:50.545Z,97.29
2023-01-18T22:54:59.357Z,99.50
2023-01-18T22:58:06.018Z,98.99
2023-01-18T23:01:16.812Z,100.00
2023-01-18T23:04:24.414Z,98.65
2023-01-18T23:07:34.671Z,99.25
2023-01-18T23:10:41.306Z,99.60
2023-01-18T23:14:10.231Z,100.00
2023-01-18T23:17:34.475Z,99.81
2023-01-18T23:20:40.943Z,100.00
2023-01-18T23:23:48.515Z,100.00
2023-01-18T23:26:54.862Z,100.00
2023-01-18T23:30:02.638Z,100.00
2023-01-18T23:33:09.080Z,100.00
2023-01-18T23:36:15.644Z,100.00
2023-01-18T23:39:41.218Z,100.00
2023-01-18T23:43:04.875Z,100.00
2023-01-18T23:46:28.819Z,100.00
2023-01-18T23:49:52.718Z,100.00
2023-01-18T23:53:18.773Z,100.00
2023-01-18T23:56:29.035Z,100.00
2023-01-18T23:59:42.352Z,100.00
